Washington Boro, Pennsylvania
Current Conditions -  °F | °C
As of 4:53 AM on Friday 21 Nov 2014 (Local Time) from KLNS Reporting Station
Clear Clear  
Wind Chill: -11°   Ceiling: Unl
Heat Index: -6°   Visibility: 10mi
Dew Point: -13°   Wind: 8mph
Humidity: 55%   Direction: 260°W
Pressure: 30.21"   Gusts: NA
Location:  39.99°N, 76.47°W
Report Text: KLNS 210953Z AUTO 26007KT 10SM CLR M06/M13 A3021 RMK AO2 SLP234 T10561133
Loading
Personal Weather Stations






























Interactive Weather Map New forecast layout! Learn more

10-Day Weather Forecast

Advertisements
Track Severe Weather on mobile